Espartinas, Spain
Current Conditions -  °F | °C
As of 2:00 AM on Sunday 21 Dec 2014 (Local Time) from LEMO Reporting Station
Moderate Fog Moderate Fog  
Wind Chill: 41°   Ceiling: 100
Heat Index: 41°   Visibility: 0.25mi
Dew Point: 41°   Wind: 2mph
Humidity: 100%   Direction: 170°S
Pressure: 30.42"   Gusts: NA
Location:  37.38°N, 6.13°W
Report Text: LEMO 210100Z 17002KT 0400 R02/0500 R20/0350 FG VV001 05/05 Q1030 NOSIG
Loading
Personal Weather Stations






























Interactive Weather Map New forecast layout! Learn more

10-Day Weather Forecast

Advertisements
Track Severe Weather on mobile